sensor_id;sensor_type;location;lat;lon;timestamp;pressure;altitude;pressure_sealevel;temperature;humidity
7532;BME280;3807;49.030;8.714;2023-07-13T00:02:06;99295.28;;;26.76;43.13
7532;BME280;3807;49.030;8.714;2023-07-13T00:04:32;99299.19;;;26.72;43.13
7532;BME280;3807;49.030;8.714;2023-07-13T00:06:57;99298.50;;;26.70;43.17
7532;BME280;3807;49.030;8.714;2023-07-13T00:09:23;99298.97;;;26.66;43.24
7532;BME280;3807;49.030;8.714;2023-07-13T00:11:54;99307.81;;;26.65;43.22
7532;BME280;3807;49.030;8.714;2023-07-13T00:14:20;99293.41;;;26.60;43.29
7532;BME280;3807;49.030;8.714;2023-07-13T00:16:46;99293.72;;;26.57;43.31
7532;BME280;3807;49.030;8.714;2023-07-13T00:19:12;99291.25;;;26.56;43.29
7532;BME280;3807;49.030;8.714;2023-07-13T00:21:40;99283.87;;;26.51;43.33
7532;BME280;3807;49.030;8.714;2023-07-13T00:24:12;99284.03;;;26.50;43.34
7532;BME280;3807;49.030;8.714;2023-07-13T00:26:42;99280.75;;;26.48;43.30
7532;BME280;3807;49.030;8.714;2023-07-13T00:29:11;99281.19;;;26.43;43.40
7532;BME280;3807;49.030;8.714;2023-07-13T00:31:37;99279.72;;;26.41;43.41
7532;BME280;3807;49.030;8.714;2023-07-13T00:34:03;99285.41;;;26.36;43.43
7532;BME280;3807;49.030;8.714;2023-07-13T00:36:30;99286.66;;;26.32;43.42
7532;BME280;3807;49.030;8.714;2023-07-13T00:38:55;99282.06;;;26.26;43.51
7532;BME280;3807;49.030;8.714;2023-07-13T00:41:21;99281.22;;;26.25;43.48
7532;BME280;3807;49.030;8.714;2023-07-13T00:43:46;99279.91;;;26.21;43.49
7532;BME280;3807;49.030;8.714;2023-07-13T00:46:17;99282.66;;;26.20;43.53
7532;BME280;3807;49.030;8.714;2023-07-13T00:48:44;99279.69;;;26.14;43.56
7532;BME280;3807;49.030;8.714;2023-07-13T00:51:11;99278.53;;;26.09;43.59
7532;BME280;3807;49.030;8.714;2023-07-13T00:53:38;99284.69;;;26.08;43.73
7532;BME280;3807;49.030;8.714;2023-07-13T00:56:04;99279.63;;;26.06;43.78
7532;BME280;3807;49.030;8.714;2023-07-13T00:58:30;99275.38;;;26.05;43.84
7532;BME280;3807;49.030;8.714;2023-07-13T01:00:56;99273.22;;;26.01;43.89
7532;BME280;3807;49.030;8.714;2023-07-13T01:03:21;99276.81;;;26.00;43.93
7532;BME280;3807;49.030;8.714;2023-07-13T01:05:48;99270.25;;;25.96;43.84
7532;BME280;3807;49.030;8.714;2023-07-13T01:08:15;99276.59;;;25.93;43.80
7532;BME280;3807;49.030;8.714;2023-07-13T01:10:41;99278.38;;;25.93;43.78
7532;BME280;3807;49.030;8.714;2023-07-13T01:13:09;99270.19;;;25.87;43.82
7532;BME280;3807;49.030;8.714;2023-07-13T01:15:45;99268.69;;;25.85;43.83
7532;BME280;3807;49.030;8.714;2023-07-13T01:18:15;99268.31;;;25.80;43.85
7532;BME280;3807;49.030;8.714;2023-07-13T01:20:50;99261.72;;;25.76;43.84
7532;BME280;3807;49.030;8.714;2023-07-13T01:23:15;99270.53;;;25.75;43.81
7532;BME280;3807;49.030;8.714;2023-07-13T01:25:41;99269.34;;;25.69;43.83
7532;BME280;3807;49.030;8.714;2023-07-13T01:28:07;99274.72;;;25.67;43.82
7532;BME280;3807;49.030;8.714;2023-07-13T01:30:37;99271.72;;;25.62;43.86
7532;BME280;3807;49.030;8.714;2023-07-13T01:33:08;99276.28;;;25.60;43.86
7532;BME280;3807;49.030;8.714;2023-07-13T01:35:35;99267.75;;;25.58;43.86
7532;BME280;3807;49.030;8.714;2023-07-13T01:38:01;99268.22;;;25.54;43.90
7532;BME280;3807;49.030;8.714;2023-07-13T01:40:27;99271.94;;;25.51;43.97
7532;BME280;3807;49.030;8.714;2023-07-13T01:42:53;99272.22;;;25.48;44.08
7532;BME280;3807;49.030;8.714;2023-07-13T01:45:18;99271.56;;;25.46;44.17
7532;BME280;3807;49.030;8.714;2023-07-13T01:47:43;99281.31;;;25.44;44.12
7532;BME280;3807;49.030;8.714;2023-07-13T01:50:09;99286.19;;;25.39;44.24
7532;BME280;3807;49.030;8.714;2023-07-13T01:52:34;99276.03;;;25.36;44.30
7532;BME280;3807;49.030;8.714;2023-07-13T01:55:00;99274.53;;;25.33;44.32
7532;BME280;3807;49.030;8.714;2023-07-13T01:57:25;99281.53;;;25.33;44.31
7532;BME280;3807;49.030;8.714;2023-07-13T01:59:50;99278.25;;;25.31;44.29
7532;BME280;3807;49.030;8.714;2023-07-13T02:02:16;99280.47;;;25.26;44.33
7532;BME280;3807;49.030;8.714;2023-07-13T02:04:41;99274.59;;;25.24;44.42
7532;BME280;3807;49.030;8.714;2023-07-13T02:07:08;99279.78;;;25.24;44.43
7532;BME280;3807;49.030;8.714;2023-07-13T02:09:33;99280.09;;;25.21;44.34
7532;BME280;3807;49.030;8.714;2023-07-13T02:11:59;99285.63;;;25.17;44.39
7532;BME280;3807;49.030;8.714;2023-07-13T02:14:24;99281.50;;;25.15;44.40
7532;BME280;3807;49.030;8.714;2023-07-13T02:16:49;99284.25;;;25.13;44.30
7532;BME280;3807;49.030;8.714;2023-07-13T02:19:15;99282.88;;;25.09;44.31
7532;BME280;3807;49.030;8.714;2023-07-13T02:21:40;99284.81;;;25.07;44.33
7532;BME280;3807;49.030;8.714;2023-07-13T02:24:05;99281.81;;;25.02;44.40
7532;BME280;3807;49.030;8.714;2023-07-13T02:26:31;99281.97;;;25.01;44.38
7532;BME280;3807;49.030;8.714;2023-07-13T02:28:56;99284.03;;;24.97;44.49
7532;BME280;3807;49.030;8.714;2023-07-13T02:31:21;99283.50;;;24.93;44.51
7532;BME280;3807;49.030;8.714;2023-07-13T02:33:47;99281.03;;;24.92;44.57
7532;BME280;3807;49.030;8.714;2023-07-13T02:36:13;99288.03;;;24.91;44.60
7532;BME280;3807;49.030;8.714;2023-07-13T02:38:42;99283.09;;;24.88;44.55
7532;BME280;3807;49.030;8.714;2023-07-13T02:41:08;99285.16;;;24.85;44.78
7532;BME280;3807;49.030;8.714;2023-07-13T02:43:33;99287.25;;;24.81;44.80
7532;BME280;3807;49.030;8.714;2023-07-13T02:46:00;99287.41;;;24.80;44.96
7532;BME280;3807;49.030;8.714;2023-07-13T02:48:31;99287.69;;;24.77;44.98
7532;BME280;3807;49.030;8.714;2023-07-13T02:50:57;99283.44;;;24.76;45.06
7532;BME280;3807;49.030;8.714;2023-07-13T02:53:22;99286.47;;;24.71;45.09
7532;BME280;3807;49.030;8.714;2023-07-13T02:55:48;99288.53;;;24.67;45.19
7532;BME280;3807;49.030;8.714;2023-07-13T02:58:13;99281.81;;;24.65;45.22
7532;BME280;3807;49.030;8.714;2023-07-13T03:00:42;99282.94;;;24.62;45.22
7532;BME280;3807;49.030;8.714;2023-07-13T03:03:07;99286.78;;;24.58;45.30
7532;BME280;3807;49.030;8.714;2023-07-13T03:05:33;99294.72;;;24.57;45.33
7532;BME280;3807;49.030;8.714;2023-07-13T03:07:58;99288.69;;;24.56;45.32
7532;BME280;3807;49.030;8.714;2023-07-13T03:10:23;99294.19;;;24.53;45.33
7532;BME280;3807;49.030;8.714;2023-07-13T03:12:49;99302.28;;;24.50;45.42
7532;BME280;3807;49.030;8.714;2023-07-13T03:15:14;99300.09;;;24.45;45.49
7532;BME280;3807;49.030;8.714;2023-07-13T03:17:40;99302.16;;;24.42;45.49
7532;BME280;3807;49.030;8.714;2023-07-13T03:20:05;99298.88;;;24.40;45.46
7532;BME280;3807;49.030;8.714;2023-07-13T03:22:32;99304.19;;;24.38;45.49
7532;BME280;3807;49.030;8.714;2023-07-13T03:24:57;99306.09;;;24.36;45.47
7532;BME280;3807;49.030;8.714;2023-07-13T03:27:23;99311.59;;;24.33;45.58
7532;BME280;3807;49.030;8.714;2023-07-13T03:29:48;99302.44;;;24.29;45.61
7532;BME280;3807;49.030;8.714;2023-07-13T03:32:13;99315.59;;;24.28;45.66
7532;BME280;3807;49.030;8.714;2023-07-13T03:34:39;99323.66;;;24.24;45.70
7532;BME280;3807;49.030;8.714;2023-07-13T03:37:04;99323.94;;;24.21;45.78
7532;BME280;3807;49.030;8.714;2023-07-13T03:39:29;99320.66;;;24.19;45.76
7532;BME280;3807;49.030;8.714;2023-07-13T03:41:55;99321.88;;;24.15;45.76
7532;BME280;3807;49.030;8.714;2023-07-13T03:44:20;99319.56;;;24.12;45.82
7532;BME280;3807;49.030;8.714;2023-07-13T03:46:46;99320.53;;;24.11;45.74
7532;BME280;3807;49.030;8.714;2023-07-13T03:49:11;99329.56;;;24.07;45.90
7532;BME280;3807;49.030;8.714;2023-07-13T03:51:37;99324.47;;;24.06;45.88
7532;BME280;3807;49.030;8.714;2023-07-13T03:54:03;99342.84;;;24.04;45.89
7532;BME280;3807;49.030;8.714;2023-07-13T03:56:29;99340.41;;;24.03;45.91
7532;BME280;3807;49.030;8.714;2023-07-13T03:58:55;99339.16;;;23.97;45.81
7532;BME280;3807;49.030;8.714;2023-07-13T04:01:22;99340.94;;;23.96;45.95
7532;BME280;3807;49.030;8.714;2023-07-13T04:03:48;99342.28;;;23.91;45.59
7532;BME280;3807;49.030;8.714;2023-07-13T04:06:16;99344.34;;;23.87;46.01
7532;BME280;3807;49.030;8.714;2023-07-13T04:08:46;99341.06;;;23.85;45.95
7532;BME280;3807;49.030;8.714;2023-07-13T04:11:12;99346.37;;;23.84;46.01
7532;BME280;3807;49.030;8.714;2023-07-13T04:13:37;99349.97;;;23.83;46.12
7532;BME280;3807;49.030;8.714;2023-07-13T04:16:03;99344.06;;;23.81;45.93
7532;BME280;3807;49.030;8.714;2023-07-13T04:18:28;99348.59;;;23.79;46.17
7532;BME280;3807;49.030;8.714;2023-07-13T04:20:54;99345.69;;;23.72;46.08
7532;BME280;3807;49.030;8.714;2023-07-13T04:23:19;99341.44;;;23.71;45.94
7532;BME280;3807;49.030;8.714;2023-07-13T04:25:49;99345.69;;;23.72;46.17
7532;BME280;3807;49.030;8.714;2023-07-13T04:28:20;99349.53;;;23.68;46.26
7532;BME280;3807;49.030;8.714;2023-07-13T04:30:46;99347.56;;;23.60;46.33
7532;BME280;3807;49.030;8.714;2023-07-13T04:33:11;99351.56;;;23.64;45.95
7532;BME280;3807;49.030;8.714;2023-07-13T04:35:37;99351.66;;;23.63;46.24
7532;BME280;3807;49.030;8.714;2023-07-13T04:38:02;99353.03;;;23.57;46.20
7532;BME280;3807;49.030;8.714;2023-07-13T04:40:28;99354.69;;;23.58;46.15
7532;BME280;3807;49.030;8.714;2023-07-13T04:42:53;99354.50;;;23.50;46.12
7532;BME280;3807;49.030;8.714;2023-07-13T04:45:19;99365.19;;;23.57;46.37
7532;BME280;3807;49.030;8.714;2023-07-13T04:47:44;99364.62;;;23.53;46.49
7532;BME280;3807;49.030;8.714;2023-07-13T04:50:13;99363.25;;;23.49;46.52
7532;BME280;3807;49.030;8.714;2023-07-13T04:52:41;99363.13;;;23.41;46.39
7532;BME280;3807;49.030;8.714;2023-07-13T04:55:07;99368.72;;;23.46;46.37
7532;BME280;3807;49.030;8.714;2023-07-13T04:57:33;99373.66;;;23.49;46.47
7532;BME280;3807;49.030;8.714;2023-07-13T04:59:58;99378.31;;;23.45;46.59
7532;BME280;3807;49.030;8.714;2023-07-13T05:02:26;99373.50;;;23.41;46.35
7532;BME280;3807;49.030;8.714;2023-07-13T05:04:53;99366.94;;;23.37;46.46
7532;BME280;3807;49.030;8.714;2023-07-13T05:07:18;99371.16;;;23.38;46.69
7532;BME280;3807;49.030;8.714;2023-07-13T05:09:44;99373.78;;;23.38;46.59
7532;BME280;3807;49.030;8.714;2023-07-13T05:12:10;99377.16;;;23.28;46.80
7532;BME280;3807;49.030;8.714;2023-07-13T05:14:35;99367.59;;;23.39;46.36
7532;BME280;3807;49.030;8.714;2023-07-13T05:17:01;99378.16;;;23.37;46.50
7532;BME280;3807;49.030;8.714;2023-07-13T05:19:26;99377.59;;;23.34;46.88
7532;BME280;3807;49.030;8.714;2023-07-13T05:21:52;99377.16;;;23.28;46.64
7532;BME280;3807;49.030;8.714;2023-07-13T05:24:17;99376.22;;;23.29;46.85
7532;BME280;3807;49.030;8.714;2023-07-13T05:26:43;99380.69;;;23.27;46.79
7532;BME280;3807;49.030;8.714;2023-07-13T05:29:08;99387.44;;;23.30;46.75
7532;BME280;3807;49.030;8.714;2023-07-13T05:31:34;99382.91;;;23.32;46.91
7532;BME280;3807;49.030;8.714;2023-07-13T05:33:59;99382.03;;;23.22;47.00
7532;BME280;3807;49.030;8.714;2023-07-13T05:36:24;99386.97;;;23.25;46.77
7532;BME280;3807;49.030;8.714;2023-07-13T05:38:50;99383.44;;;23.26;46.94
7532;BME280;3807;49.030;8.714;2023-07-13T05:41:15;99383.81;;;23.21;46.89
7532;BME280;3807;49.030;8.714;2023-07-13T05:43:40;99380.66;;;23.18;46.90
7532;BME280;3807;49.030;8.714;2023-07-13T05:46:06;99383.97;;;23.20;46.68
7532;BME280;3807;49.030;8.714;2023-07-13T05:48:31;99382.31;;;23.19;46.88
7532;BME280;3807;49.030;8.714;2023-07-13T05:50:56;99388.34;;;23.19;47.01
7532;BME280;3807;49.030;8.714;2023-07-13T05:53:22;99392.09;;;23.05;46.99
7532;BME280;3807;49.030;8.714;2023-07-13T05:55:47;99399.56;;;23.20;46.96
7532;BME280;3807;49.030;8.714;2023-07-13T05:58:16;99405.56;;;23.20;46.99
7532;BME280;3807;49.030;8.714;2023-07-13T06:00:42;99401.69;;;23.15;47.23
7532;BME280;3807;49.030;8.714;2023-07-13T06:03:07;99404.19;;;23.16;47.16
7532;BME280;3807;49.030;8.714;2023-07-13T06:05:34;99404.03;;;23.18;46.97
7532;BME280;3807;49.030;8.714;2023-07-13T06:08:01;99416.97;;;23.08;47.26
7532;BME280;3807;49.030;8.714;2023-07-13T06:10:26;99412.06;;;23.05;47.20
7532;BME280;3807;49.030;8.714;2023-07-13T06:12:51;99411.16;;;23.16;47.27
7532;BME280;3807;49.030;8.714;2023-07-13T06:15:17;99414.53;;;23.06;47.33
7532;BME280;3807;49.030;8.714;2023-07-13T06:17:42;99412.88;;;23.05;47.13
7532;BME280;3807;49.030;8.714;2023-07-13T06:20:08;99419.78;;;23.16;47.26
7532;BME280;3807;49.030;8.714;2023-07-13T06:22:33;99420.84;;;23.14;47.27
7532;BME280;3807;49.030;8.714;2023-07-13T06:24:58;99422.06;;;23.10;47.24
7532;BME280;3807;49.030;8.714;2023-07-13T06:27:24;99422.22;;;23.18;47.20
7532;BME280;3807;49.030;8.714;2023-07-13T06:29:49;99417.84;;;23.18;46.95
7532;BME280;3807;49.030;8.714;2023-07-13T06:32:14;99431.13;;;23.15;47.03
7532;BME280;3807;49.030;8.714;2023-07-13T06:34:40;99425.47;;;23.10;47.04
7532;BME280;3807;49.030;8.714;2023-07-13T06:37:05;99436.59;;;23.12;47.17
7532;BME280;3807;49.030;8.714;2023-07-13T06:39:31;99442.09;;;23.19;46.91
7532;BME280;3807;49.030;8.714;2023-07-13T06:41:56;99438.38;;;23.21;46.85
7532;BME280;3807;49.030;8.714;2023-07-13T06:44:21;99439.44;;;23.09;46.90
7532;BME280;3807;49.030;8.714;2023-07-13T06:46:47;99444.41;;;23.22;46.83
7532;BME280;3807;49.030;8.714;2023-07-13T06:49:12;99446.56;;;23.17;46.99
7532;BME280;3807;49.030;8.714;2023-07-13T06:51:37;99451.25;;;23.23;46.86
7532;BME280;3807;49.030;8.714;2023-07-13T06:54:03;99456.47;;;23.23;46.84
7532;BME280;3807;49.030;8.714;2023-07-13T06:56:28;99448.53;;;23.24;46.87
7532;BME280;3807;49.030;8.714;2023-07-13T06:58:53;99450.88;;;23.27;46.86
7532;BME280;3807;49.030;8.714;2023-07-13T07:01:19;99450.13;;;23.16;46.91
7532;BME280;3807;49.030;8.714;2023-07-13T07:03:44;99449.47;;;23.23;46.76
7532;BME280;3807;49.030;8.714;2023-07-13T07:06:16;99452.75;;;23.25;46.70
7532;BME280;3807;49.030;8.714;2023-07-13T07:08:41;99455.91;;;23.29;46.56
7532;BME280;3807;49.030;8.714;2023-07-13T07:11:16;99461.13;;;23.29;46.58
7532;BME280;3807;49.030;8.714;2023-07-13T07:13:42;99463.88;;;23.27;46.67
7532;BME280;3807;49.030;8.714;2023-07-13T07:16:07;99463.72;;;23.29;46.55
7532;BME280;3807;49.030;8.714;2023-07-13T07:18:34;99463.22;;;23.35;46.38
7532;BME280;3807;49.030;8.714;2023-07-13T07:20:59;99465.94;;;23.34;46.17
7532;BME280;3807;49.030;8.714;2023-07-13T07:23:24;99468.97;;;23.39;46.16
7532;BME280;3807;49.030;8.714;2023-07-13T07:25:50;99464.75;;;23.38;46.25
7532;BME280;3807;49.030;8.714;2023-07-13T07:28:17;99468.84;;;23.40;46.06
7532;BME280;3807;49.030;8.714;2023-07-13T07:30:44;99473.66;;;23.45;45.87
7532;BME280;3807;49.030;8.714;2023-07-13T07:33:09;99476.50;;;23.42;46.32
7532;BME280;3807;49.030;8.714;2023-07-13T07:35:35;99464.34;;;23.42;46.26
7532;BME280;3807;49.030;8.714;2023-07-13T07:38:00;99471.72;;;23.37;46.41
7532;BME280;3807;49.030;8.714;2023-07-13T07:40:25;99475.37;;;23.35;46.61
7532;BME280;3807;49.030;8.714;2023-07-13T07:42:51;99477.34;;;23.42;46.44
7532;BME280;3807;49.030;8.714;2023-07-13T07:45:17;99473.16;;;23.51;46.25
7532;BME280;3807;49.030;8.714;2023-07-13T07:47:42;99477.84;;;23.67;45.47
7532;BME280;3807;49.030;8.714;2023-07-13T07:50:08;99477.25;;;23.74;45.83
7532;BME280;3807;49.030;8.714;2023-07-13T07:52:33;99471.34;;;23.72;45.72
7532;BME280;3807;49.030;8.714;2023-07-13T07:54:59;99468.03;;;23.70;45.75
7532;BME280;3807;49.030;8.714;2023-07-13T07:57:24;99470.84;;;23.88;44.70
7532;BME280;3807;49.030;8.714;2023-07-13T07:59:49;99485.91;;;23.94;45.42
7532;BME280;3807;49.030;8.714;2023-07-13T08:02:15;99474.34;;;23.77;44.64
7532;BME280;3807;49.030;8.714;2023-07-13T08:04:40;99480.31;;;23.89;45.50
7532;BME280;3807;49.030;8.714;2023-07-13T08:07:05;99480.34;;;23.99;46.05
7532;BME280;3807;49.030;8.714;2023-07-13T08:09:32;99481.00;;;24.01;45.89
7532;BME280;3807;49.030;8.714;2023-07-13T08:11:58;99480.34;;;24.09;45.98
7532;BME280;3807;49.030;8.714;2023-07-13T08:14:23;99491.84;;;24.06;45.27
7532;BME280;3807;49.030;8.714;2023-07-13T08:16:48;99492.41;;;24.10;45.72
7532;BME280;3807;49.030;8.714;2023-07-13T08:19:14;99489.13;;;24.17;45.69
7532;BME280;3807;49.030;8.714;2023-07-13T08:21:40;99493.13;;;24.31;45.09
7532;BME280;3807;49.030;8.714;2023-07-13T08:24:07;99492.97;;;24.33;45.09
7532;BME280;3807;49.030;8.714;2023-07-13T08:26:33;99498.25;;;24.42;44.67
7532;BME280;3807;49.030;8.714;2023-07-13T08:28:58;99492.00;;;24.34;43.77
7532;BME280;3807;49.030;8.714;2023-07-13T08:31:23;99483.13;;;24.36;44.37
7532;BME280;3807;49.030;8.714;2023-07-13T08:33:49;99482.78;;;24.41;42.84
7532;BME280;3807;49.030;8.714;2023-07-13T08:36:14;99487.12;;;24.40;44.23
7532;BME280;3807;49.030;8.714;2023-07-13T08:38:39;99482.03;;;24.39;43.15
7532;BME280;3807;49.030;8.714;2023-07-13T08:41:16;99487.50;;;24.36;44.60
7532;BME280;3807;49.030;8.714;2023-07-13T08:43:46;99481.41;;;24.56;44.31
7532;BME280;3807;49.030;8.714;2023-07-13T08:46:19;99483.84;;;24.67;43.40
7532;BME280;3807;49.030;8.714;2023-07-13T08:48:53;99477.84;;;24.77;43.73
7532;BME280;3807;49.030;8.714;2023-07-13T08:51:35;99481.78;;;24.81;43.43
7532;BME280;3807;49.030;8.714;2023-07-13T08:54:11;99483.84;;;24.77;43.56
7532;BME280;3807;49.030;8.714;2023-07-13T08:56:39;99478.66;;;24.77;42.39
7532;BME280;3807;49.030;8.714;2023-07-13T08:59:16;99474.34;;;25.05;43.56
7532;BME280;3807;49.030;8.714;2023-07-13T09:05:04;99475.47;;;25.12;42.43
7532;BME280;3807;49.030;8.714;2023-07-13T09:10:42;99484.94;;;24.94;43.05
7532;BME280;3807;49.030;8.714;2023-07-13T09:15:49;99481.75;;;25.19;42.73
7532;BME280;3807;49.030;8.714;2023-07-13T09:18:27;99477.06;;;25.33;42.77
7532;BME280;3807;49.030;8.714;2023-07-13T09:21:22;99478.72;;;25.34;42.57
7532;BME280;3807;49.030;8.714;2023-07-13T09:23:52;99482.63;;;25.48;42.04
7532;BME280;3807;49.030;8.714;2023-07-13T09:26:23;99482.81;;;25.36;42.56
7532;BME280;3807;49.030;8.714;2023-07-13T09:28:51;99482.31;;;25.60;42.17
7532;BME280;3807;49.030;8.714;2023-07-13T09:31:32;99494.81;;;25.66;41.31
7532;BME280;3807;49.030;8.714;2023-07-13T09:33:59;99484.78;;;25.25;40.92
7532;BME280;3807;49.030;8.714;2023-07-13T09:36:27;99485.88;;;25.32;41.48
7532;BME280;3807;49.030;8.714;2023-07-13T09:39:08;99481.72;;;25.39;40.19
7532;BME280;3807;49.030;8.714;2023-07-13T09:44:56;99473.41;;;25.90;41.32
7532;BME280;3807;49.030;8.714;2023-07-13T09:47:24;99473.13;;;25.94;40.96
7532;BME280;3807;49.030;8.714;2023-07-13T09:49:59;99473.81;;;25.96;41.13
7532;BME280;3807;49.030;8.714;2023-07-13T09:52:26;99475.69;;;26.21;40.92
7532;BME280;3807;49.030;8.714;2023-07-13T09:54:53;99474.44;;;26.25;40.85
7532;BME280;3807;49.030;8.714;2023-07-13T09:57:25;99476.69;;;26.20;40.48
7532;BME280;3807;49.030;8.714;2023-07-13T09:59:52;99475.81;;;26.29;40.44
7532;BME280;3807;49.030;8.714;2023-07-13T10:02:33;99487.44;;;26.35;39.23
7532;BME280;3807;49.030;8.714;2023-07-13T10:05:02;99483.81;;;26.18;40.60
7532;BME280;3807;49.030;8.714;2023-07-13T10:07:29;99474.47;;;26.43;39.49
7532;BME280;3807;49.030;8.714;2023-07-13T10:09:56;99471.25;;;26.49;38.88
7532;BME280;3807;49.030;8.714;2023-07-13T10:12:22;99473.22;;;26.65;38.63
7532;BME280;3807;49.030;8.714;2023-07-13T10:14:57;99473.34;;;26.81;38.97
7532;BME280;3807;49.030;8.714;2023-07-13T10:17:32;99478.53;;;26.99;38.35
7532;BME280;3807;49.030;8.714;2023-07-13T10:20:00;99480.63;;;26.96;38.32
7532;BME280;3807;49.030;8.714;2023-07-13T10:22:54;99469.63;;;27.10;36.93
7532;BME280;3807;49.030;8.714;2023-07-13T10:25:25;99467.50;;;27.31;37.56
7532;BME280;3807;49.030;8.714;2023-07-13T10:27:54;99472.44;;;27.43;37.63
7532;BME280;3807;49.030;8.714;2023-07-13T10:30:24;99464.69;;;27.59;37.33
7532;BME280;3807;49.030;8.714;2023-07-13T10:32:53;99471.56;;;27.68;37.04
7532;BME280;3807;49.030;8.714;2023-07-13T10:35:20;99473.47;;;27.84;37.37
7532;BME280;3807;49.030;8.714;2023-07-13T10:38:07;99470.22;;;27.90;37.33
7532;BME280;3807;49.030;8.714;2023-07-13T10:40:39;99478.09;;;27.90;36.75
7532;BME280;3807;49.030;8.714;2023-07-13T10:43:16;99483.31;;;27.90;36.19
7532;BME280;3807;49.030;8.714;2023-07-13T10:45:45;99479.09;;;27.97;36.26
7532;BME280;3807;49.030;8.714;2023-07-13T10:48:14;99479.22;;;27.96;35.74
7532;BME280;3807;49.030;8.714;2023-07-13T10:50:42;99477.47;;;28.13;34.37
7532;BME280;3807;49.030;8.714;2023-07-13T10:53:20;99473.25;;;28.36;34.88
7532;BME280;3807;49.030;8.714;2023-07-13T10:58:23;99479.06;;;28.81;34.64
7532;BME280;3807;49.030;8.714;2023-07-13T11:00:56;99475.13;;;28.77;34.42
7532;BME280;3807;49.030;8.714;2023-07-13T11:03:22;99480.03;;;28.88;32.84
7532;BME280;3807;49.030;8.714;2023-07-13T11:06:04;99473.00;;;29.05;34.37
7532;BME280;3807;49.030;8.714;2023-07-13T11:08:50;99464.44;;;29.19;34.44
7532;BME280;3807;49.030;8.714;2023-07-13T11:11:37;99459.16;;;29.27;33.64
7532;BME280;3807;49.030;8.714;2023-07-13T11:16:52;99462.38;;;29.46;33.44
7532;BME280;3807;49.030;8.714;2023-07-13T11:24:29;99450.53;;;29.97;32.47
7532;BME280;3807;49.030;8.714;2023-07-13T11:26:55;99457.66;;;29.88;32.36
7532;BME280;3807;49.030;8.714;2023-07-13T11:29:38;99449.84;;;30.03;32.20
7532;BME280;3807;49.030;8.714;2023-07-13T11:32:25;99456.16;;;30.17;31.94
7532;BME280;3807;49.030;8.714;2023-07-13T11:34:55;99447.81;;;30.13;31.65
7532;BME280;3807;49.030;8.714;2023-07-13T11:37:21;99452.81;;;30.31;31.71
7532;BME280;3807;49.030;8.714;2023-07-13T11:39:50;99452.25;;;30.59;31.61
7532;BME280;3807;49.030;8.714;2023-07-13T11:42:18;99451.78;;;30.78;30.16
7532;BME280;3807;49.030;8.714;2023-07-13T11:44:46;99452.47;;;30.72;30.09
7532;BME280;3807;49.030;8.714;2023-07-13T11:47:20;99458.06;;;30.92;30.69
7532;BME280;3807;49.030;8.714;2023-07-13T11:49:52;99455.00;;;31.03;30.58
7532;BME280;3807;49.030;8.714;2023-07-13T11:52:28;99454.72;;;30.98;31.05
7532;BME280;3807;49.030;8.714;2023-07-13T11:54:57;99440.84;;;31.04;30.35
7532;BME280;3807;49.030;8.714;2023-07-13T11:57:30;99445.66;;;31.16;30.92
7532;BME280;3807;49.030;8.714;2023-07-13T12:00:00;99440.28;;;31.09;30.59
7532;BME280;3807;49.030;8.714;2023-07-13T12:02:31;99457.28;;;31.21;29.45
7532;BME280;3807;49.030;8.714;2023-07-13T12:04:57;99454.03;;;31.34;30.59
7532;BME280;3807;49.030;8.714;2023-07-13T12:07:23;99446.56;;;31.67;29.92
7532;BME280;3807;49.030;8.714;2023-07-13T12:09:49;99452.44;;;31.69;30.08
7532;BME280;3807;49.030;8.714;2023-07-13T12:12:20;99452.06;;;31.72;29.64
7532;BME280;3807;49.030;8.714;2023-07-13T12:14:46;99440.62;;;31.80;29.20
7532;BME280;3807;49.030;8.714;2023-07-13T12:17:21;99439.31;;;31.54;28.40
7532;BME280;3807;49.030;8.714;2023-07-13T12:19:48;99433.34;;;31.82;29.40
7532;BME280;3807;49.030;8.714;2023-07-13T12:22:16;99453.97;;;32.15;29.45
7532;BME280;3807;49.030;8.714;2023-07-13T12:24:43;99446.25;;;32.13;29.36
7532;BME280;3807;49.030;8.714;2023-07-13T12:27:23;99446.41;;;32.26;28.88
7532;BME280;3807;49.030;8.714;2023-07-13T12:29:58;99447.06;;;32.14;28.24
7532;BME280;3807;49.030;8.714;2023-07-13T12:32:25;99441.34;;;32.46;28.67
7532;BME280;3807;49.030;8.714;2023-07-13T12:34:56;99450.78;;;32.19;28.67
7532;BME280;3807;49.030;8.714;2023-07-13T12:37:22;99438.72;;;32.46;29.06
7532;BME280;3807;49.030;8.714;2023-07-13T12:39:48;99446.75;;;32.66;28.89
7532;BME280;3807;49.030;8.714;2023-07-13T12:42:26;99444.84;;;32.82;27.53
7532;BME280;3807;49.030;8.714;2023-07-13T12:44:59;99450.75;;;33.12;27.59
7532;BME280;3807;49.030;8.714;2023-07-13T12:47:26;99457.16;;;32.96;27.61
7532;BME280;3807;49.030;8.714;2023-07-13T12:49:57;99448.03;;;32.99;27.98
7532;BME280;3807;49.030;8.714;2023-07-13T12:52:32;99456.84;;;33.12;27.55
7532;BME280;3807;49.030;8.714;2023-07-13T12:55:03;99448.84;;;33.34;27.51
7532;BME280;3807;49.030;8.714;2023-07-13T12:57:29;99450.56;;;33.48;27.69
7532;BME280;3807;49.030;8.714;2023-07-13T12:59:55;99442.31;;;33.30;26.62
7532;BME280;3807;49.030;8.714;2023-07-13T13:02:28;99451.22;;;33.22;28.26
7532;BME280;3807;49.030;8.714;2023-07-13T13:04:55;99447.53;;;33.51;27.93
7532;BME280;3807;49.030;8.714;2023-07-13T13:07:21;99456.22;;;33.45;26.92
7532;BME280;3807;49.030;8.714;2023-07-13T13:09:46;99451.03;;;33.72;26.00
7532;BME280;3807;49.030;8.714;2023-07-13T13:12:12;99446.59;;;33.31;27.10
7532;BME280;3807;49.030;8.714;2023-07-13T13:14:38;99454.09;;;33.27;27.80
7532;BME280;3807;49.030;8.714;2023-07-13T13:17:16;99445.75;;;33.72;27.00
7532;BME280;3807;49.030;8.714;2023-07-13T13:19:44;99448.81;;;33.69;27.08
7532;BME280;3807;49.030;8.714;2023-07-13T13:22:11;99447.44;;;33.79;25.85
7532;BME280;3807;49.030;8.714;2023-07-13T13:24:36;99436.47;;;33.82;27.32
7532;BME280;3807;49.030;8.714;2023-07-13T13:27:02;99446.03;;;33.90;27.28
7532;BME280;3807;49.030;8.714;2023-07-13T13:29:27;99452.22;;;34.24;26.65
7532;BME280;3807;49.030;8.714;2023-07-13T13:31:54;99450.22;;;34.39;25.70
7532;BME280;3807;49.030;8.714;2023-07-13T13:34:21;99456.50;;;34.45;24.69
7532;BME280;3807;49.030;8.714;2023-07-13T13:36:50;99456.50;;;34.45;25.46
7532;BME280;3807;49.030;8.714;2023-07-13T13:39:23;99451.44;;;34.76;26.21
7532;BME280;3807;49.030;8.714;2023-07-13T13:41:51;99454.91;;;34.77;26.06
7532;BME280;3807;49.030;8.714;2023-07-13T13:44:19;99444.31;;;34.70;25.74
7532;BME280;3807;49.030;8.714;2023-07-13T13:46:47;99442.09;;;34.74;26.38
7532;BME280;3807;49.030;8.714;2023-07-13T13:49:16;99435.53;;;34.96;26.44